createdAt,value
2023-01-29T00:01:37.949Z,10.00
2023-01-29T00:04:06.332Z,9.33
2023-01-29T00:06:34.465Z,9.87
2023-01-29T00:09:02.682Z,9.23
2023-01-29T00:11:31.891Z,9.33
2023-01-29T00:14:00.471Z,10.03
2023-01-29T00:16:28.704Z,10.10
2023-01-29T00:18:58.266Z,10.60
2023-01-29T00:21:26.467Z,9.07
2023-01-29T00:23:56.158Z,9.57
2023-01-29T00:26:24.424Z,9.93
2023-01-29T00:28:52.651Z,10.60
2023-01-29T00:31:22.380Z,10.57
2023-01-29T00:33:50.804Z,10.13
2023-01-29T00:36:21.637Z,10.90
2023-01-29T00:38:54.585Z,10.97
2023-01-29T00:41:41.558Z,10.70
2023-01-29T00:44:27.995Z,10.43
2023-01-29T00:46:56.273Z,10.13
2023-01-29T00:49:24.640Z,10.50
2023-01-29T00:52:08.060Z,10.40
2023-01-29T00:54:36.400Z,10.20
2023-01-29T00:57:05.274Z,10.10
2023-01-29T00:59:33.460Z,10.43
2023-01-29T01:02:19.258Z,10.40
2023-01-29T01:04:47.573Z,10.97
2023-01-29T01:07:17.125Z,10.33
2023-01-29T01:10:03.174Z,11.57
2023-01-29T01:12:31.972Z,11.70
2023-01-29T01:15:00.162Z,11.00
2023-01-29T01:17:28.379Z,11.97
2023-01-29T01:19:56.545Z,11.80
2023-01-29T01:22:26.112Z,12.20
2023-01-29T01:24:54.315Z,12.00
2023-01-29T01:27:22.662Z,12.80
2023-01-29T01:29:50.903Z,12.07
2023-01-29T01:32:19.209Z,11.63
2023-01-29T01:34:47.451Z,13.30
2023-01-29T01:37:15.680Z,12.33
2023-01-29T01:39:49.043Z,13.63
2023-01-29T01:42:17.260Z,12.57
2023-01-29T01:45:00.640Z,12.50
2023-01-29T01:47:31.871Z,13.87
2023-01-29T01:50:03.189Z,13.47
2023-01-29T01:52:32.868Z,13.83
2023-01-29T01:55:02.652Z,13.57
2023-01-29T01:57:32.051Z,15.07
2023-01-29T02:00:09.986Z,15.67
2023-01-29T02:02:56.469Z,15.43
2023-01-29T02:05:42.827Z,15.03
2023-01-29T02:08:29.106Z,15.57
2023-01-29T02:10:59.890Z,15.83
2023-01-29T02:13:28.331Z,14.80
2023-01-29T02:15:56.518Z,15.07
2023-01-29T02:18:24.733Z,15.37
2023-01-29T02:21:05.616Z,15.67
2023-01-29T02:23:47.448Z,15.97
2023-01-29T02:26:22.366Z,16.53
2023-01-29T02:28:54.766Z,16.10
2023-01-29T02:31:29.060Z,15.63
2023-01-29T02:34:02.760Z,15.37
2023-01-29T02:36:36.971Z,15.73
2023-01-29T02:39:11.304Z,16.07
2023-01-29T02:41:41.374Z,15.77
2023-01-29T02:44:17.265Z,15.60
2023-01-29T02:46:50.943Z,16.20
2023-01-29T02:49:24.305Z,15.53
2023-01-29T02:51:57.246Z,15.53
2023-01-29T02:54:26.723Z,15.17
2023-01-29T02:56:57.465Z,15.30
2023-01-29T02:59:29.487Z,14.60
2023-01-29T03:01:59.429Z,15.00
2023-01-29T03:04:31.228Z,14.17
2023-01-29T03:07:01.537Z,14.50
2023-01-29T03:09:32.619Z,14.10
2023-01-29T03:12:19.922Z,14.60
2023-01-29T03:15:09.316Z,13.90
2023-01-29T03:17:39.022Z,14.67
2023-01-29T03:20:09.981Z,14.37
2023-01-29T03:22:39.773Z,13.90
2023-01-29T03:25:27.485Z,14.80
2023-01-29T03:28:15.316Z,13.87
2023-01-29T03:31:03.918Z,13.97
2023-01-29T03:33:33.402Z,13.07
2023-01-29T03:36:04.037Z,13.13
2023-01-29T03:38:32.347Z,14.60
2023-01-29T03:41:04.359Z,14.07
2023-01-29T03:43:35.890Z,13.40
2023-01-29T03:46:09.780Z,13.23
2023-01-29T03:48:40.029Z,12.90
2023-01-29T03:51:16.053Z,12.50
2023-01-29T03:53:45.891Z,12.63
2023-01-29T03:56:20.761Z,12.87
2023-01-29T03:58:50.165Z,12.93
2023-01-29T04:01:21.614Z,12.90
2023-01-29T04:03:51.659Z,12.73
2023-01-29T04:06:21.808Z,13.20
2023-01-29T04:08:54.153Z,12.90
2023-01-29T04:11:23.891Z,12.63
2023-01-29T04:13:53.071Z,13.23
2023-01-29T04:16:24.603Z,12.97
2023-01-29T04:18:53.207Z,12.90
2023-01-29T04:21:21.536Z,13.10
2023-01-29T04:23:49.705Z,14.00
2023-01-29T04:26:27.511Z,12.77
2023-01-29T04:29:04.027Z,12.83
2023-01-29T04:31:36.236Z,12.90
2023-01-29T04:34:10.385Z,13.67
2023-01-29T04:36:40.751Z,13.20
2023-01-29T04:39:13.499Z,13.43
2023-01-29T04:41:45.455Z,13.40
2023-01-29T04:44:18.007Z,12.60
2023-01-29T04:46:50.925Z,13.33
2023-01-29T04:49:24.663Z,13.00
2023-01-29T04:51:58.330Z,12.90
2023-01-29T04:54:30.559Z,13.47
2023-01-29T04:57:03.924Z,13.17
2023-01-29T04:59:34.921Z,13.93
2023-01-29T05:02:05.810Z,13.80
2023-01-29T05:04:35.232Z,13.87
2023-01-29T05:07:05.237Z,13.73
2023-01-29T05:09:33.761Z,13.73
2023-01-29T05:12:02.523Z,14.00
2023-01-29T05:14:32.542Z,13.20
2023-01-29T05:17:03.611Z,13.93
2023-01-29T05:19:33.199Z,15.20
2023-01-29T05:22:01.777Z,13.63
2023-01-29T05:24:30.019Z,14.93
2023-01-29T05:27:15.926Z,14.30
2023-01-29T05:29:46.678Z,14.60
2023-01-29T05:32:15.251Z,14.07
2023-01-29T05:34:44.788Z,14.43
2023-01-29T05:37:12.996Z,14.60
2023-01-29T05:39:41.207Z,14.87
2023-01-29T05:42:09.375Z,14.37
2023-01-29T05:44:37.512Z,14.47
2023-01-29T05:47:06.434Z,14.30
2023-01-29T05:49:34.619Z,14.23
2023-01-29T05:52:04.282Z,15.97
2023-01-29T05:54:32.417Z,15.07
2023-01-29T05:57:00.577Z,15.40
2023-01-29T05:59:31.100Z,14.40
2023-01-29T06:01:59.351Z,15.23
2023-01-29T06:04:27.574Z,14.63
2023-01-29T06:06:55.735Z,15.00
2023-01-29T06:09:25.220Z,14.47
2023-01-29T06:11:53.424Z,15.63
2023-01-29T06:14:21.627Z,15.80
2023-01-29T06:16:49.959Z,15.07
2023-01-29T06:19:20.660Z,15.53
2023-01-29T06:21:48.796Z,15.40
2023-01-29T06:24:17.158Z,15.97
2023-01-29T06:26:46.811Z,15.00
2023-01-29T06:29:14.950Z,15.00
2023-01-29T06:31:43.250Z,15.53
2023-01-29T06:34:11.583Z,15.23
2023-01-29T06:36:41.561Z,16.67
2023-01-29T06:39:09.778Z,14.83
2023-01-29T06:41:37.962Z,15.60
2023-01-29T06:44:07.552Z,14.97
2023-01-29T06:46:35.703Z,16.23
2023-01-29T06:49:03.916Z,15.80
2023-01-29T06:51:32.080Z,15.43
2023-01-29T06:54:00.247Z,15.33
2023-01-29T06:56:28.595Z,14.53
2023-01-29T06:58:56.811Z,15.73
2023-01-29T07:01:35.663Z,15.40
2023-01-29T07:04:04.540Z,15.73
2023-01-29T07:06:33.064Z,14.87
2023-01-29T07:09:01.667Z,16.10
2023-01-29T07:11:29.830Z,15.60
2023-01-29T07:13:58.061Z,16.40
2023-01-29T07:16:27.741Z,16.07
2023-01-29T07:18:56.015Z,16.53
2023-01-29T07:21:24.163Z,16.67
2023-01-29T07:23:52.303Z,16.27
2023-01-29T07:26:20.475Z,16.60
2023-01-29T07:28:48.686Z,16.80
2023-01-29T07:31:17.105Z,15.87
2023-01-29T07:33:46.850Z,17.00
2023-01-29T07:36:15.176Z,17.20
2023-01-29T07:38:43.313Z,15.97
2023-01-29T07:41:13.624Z,17.13
2023-01-29T07:43:41.851Z,17.03
2023-01-29T07:46:10.084Z,17.03
2023-01-29T07:48:38.475Z,17.03
2023-01-29T07:51:08.032Z,16.53
2023-01-29T07:53:36.933Z,17.60
2023-01-29T07:56:05.147Z,16.47
2023-01-29T07:58:35.732Z,16.83
2023-01-29T08:01:06.721Z,18.83
2023-01-29T08:03:35.743Z,17.13
2023-01-29T08:06:04.571Z,18.17
2023-01-29T08:08:34.084Z,18.57
2023-01-29T08:11:03.278Z,17.17
2023-01-29T08:13:31.462Z,16.87
2023-01-29T08:16:01.226Z,16.97
2023-01-29T08:18:29.668Z,18.93
2023-01-29T08:21:00.991Z,17.80
2023-01-29T08:23:29.164Z,17.40
2023-01-29T08:25:58.710Z,17.73
2023-01-29T08:28:26.936Z,18.47
2023-01-29T08:30:55.305Z,18.60
2023-01-29T08:33:37.168Z,17.57
2023-01-29T08:36:07.655Z,17.67
2023-01-29T08:38:35.936Z,18.77
2023-01-29T08:41:05.516Z,18.37
2023-01-29T08:43:33.735Z,18.80
2023-01-29T08:46:01.871Z,18.43
2023-01-29T08:48:30.321Z,18.97
2023-01-29T08:50:59.431Z,17.63
2023-01-29T08:53:27.834Z,19.17
2023-01-29T08:55:56.165Z,18.90
2023-01-29T08:58:25.703Z,19.83
2023-01-29T09:00:53.963Z,21.77
2023-01-29T09:03:22.130Z,20.37
2023-01-29T09:05:50.387Z,20.10
2023-01-29T09:08:18.537Z,20.27
2023-01-29T09:10:46.702Z,20.63
2023-01-29T09:13:14.894Z,20.67
2023-01-29T09:15:44.472Z,20.37
2023-01-29T09:18:12.657Z,19.30
2023-01-29T09:20:40.870Z,20.00
2023-01-29T09:23:09.723Z,21.57
2023-01-29T09:25:38.045Z,20.17
2023-01-29T09:28:07.134Z,20.13
2023-01-29T09:30:37.676Z,20.97
2023-01-29T09:33:07.679Z,20.63
2023-01-29T09:35:36.354Z,21.23
2023-01-29T09:38:04.582Z,21.73
2023-01-29T09:40:35.086Z,20.40
2023-01-29T09:43:04.725Z,20.90
2023-01-29T09:45:32.913Z,20.80
2023-01-29T09:48:02.504Z,20.40
2023-01-29T09:50:33.759Z,21.87
2023-01-29T09:53:04.905Z,20.50
2023-01-29T09:55:40.956Z,21.07
2023-01-29T09:58:14.046Z,21.43
2023-01-29T10:00:44.960Z,21.87
2023-01-29T10:03:19.966Z,21.60
2023-01-29T10:06:06.859Z,21.03
2023-01-29T10:08:46.297Z,20.83
2023-01-29T10:11:17.816Z,21.90
2023-01-29T10:13:49.554Z,22.07
2023-01-29T10:16:28.882Z,20.13
2023-01-29T10:19:09.908Z,21.20
2023-01-29T10:21:59.011Z,21.93
2023-01-29T10:24:37.282Z,20.97
2023-01-29T10:27:05.620Z,21.23
2023-01-29T10:29:34.858Z,21.53
2023-01-29T10:32:05.917Z,22.80
2023-01-29T10:34:37.751Z,21.70
2023-01-29T10:37:15.550Z,21.50
2023-01-29T10:39:45.061Z,21.47
2023-01-29T10:42:22.826Z,21.83
2023-01-29T10:45:04.311Z,22.97
2023-01-29T10:47:44.537Z,20.83
2023-01-29T10:50:20.966Z,21.80
2023-01-29T10:52:58.040Z,21.50
2023-01-29T10:55:32.640Z,21.80
2023-01-29T10:58:08.526Z,22.40
2023-01-29T11:00:37.800Z,21.37
2023-01-29T11:03:26.341Z,21.63
2023-01-29T11:05:57.986Z,20.93
2023-01-29T11:08:28.981Z,21.13
2023-01-29T11:11:02.978Z,22.60
2023-01-29T11:13:33.456Z,21.53
2023-01-29T11:16:01.686Z,21.60
2023-01-29T11:18:49.831Z,21.97
2023-01-29T11:21:18.010Z,20.73
2023-01-29T11:23:46.539Z,22.83
2023-01-29T11:26:19.506Z,21.87
2023-01-29T11:28:48.815Z,21.50
2023-01-29T11:31:18.086Z,21.33
2023-01-29T11:33:47.095Z,21.40
2023-01-29T11:36:32.892Z,22.57
2023-01-29T11:39:22.162Z,22.27
2023-01-29T11:41:54.424Z,21.17
2023-01-29T11:44:24.019Z,22.30
2023-01-29T11:46:52.431Z,22.30
2023-01-29T11:49:34.053Z,22.40
2023-01-29T11:52:04.026Z,22.77
2023-01-29T11:54:34.459Z,21.60
2023-01-29T11:57:04.880Z,22.13
2023-01-29T11:59:39.580Z,22.43
2023-01-29T12:02:15.273Z,20.43
2023-01-29T12:04:43.534Z,22.30
2023-01-29T12:07:14.640Z,20.87
2023-01-29T12:09:42.945Z,22.00
2023-01-29T12:12:20.249Z,20.27
2023-01-29T12:14:48.423Z,20.70
2023-01-29T12:17:20.068Z,20.93
2023-01-29T12:19:49.659Z,20.87
2023-01-29T12:22:20.423Z,20.50
2023-01-29T12:24:52.524Z,20.77
2023-01-29T12:27:25.606Z,20.10
2023-01-29T12:29:57.385Z,20.67
2023-01-29T12:32:31.376Z,20.43
2023-01-29T12:35:03.578Z,20.47
2023-01-29T12:37:36.799Z,21.23
2023-01-29T12:40:12.727Z,18.13
2023-01-29T12:42:43.265Z,19.33
2023-01-29T12:45:12.235Z,18.63
2023-01-29T12:47:42.921Z,20.00
2023-01-29T12:50:16.603Z,19.87
2023-01-29T12:52:45.926Z,19.40
2023-01-29T12:55:17.823Z,21.70
2023-01-29T12:57:50.541Z,19.87
2023-01-29T13:00:22.460Z,16.83
2023-01-29T13:02:54.174Z,19.17
2023-01-29T13:05:24.945Z,18.97
2023-01-29T13:07:55.170Z,19.03
2023-01-29T13:10:26.358Z,20.37
2023-01-29T13:12:58.603Z,20.27
2023-01-29T13:15:30.460Z,16.60
2023-01-29T13:18:00.727Z,18.97
2023-01-29T13:20:30.734Z,20.03
2023-01-29T13:23:00.905Z,19.50
2023-01-29T13:25:29.216Z,20.57
2023-01-29T13:27:58.708Z,18.37
2023-01-29T13:30:28.119Z,19.77
2023-01-29T13:33:09.077Z,19.00
2023-01-29T13:35:39.232Z,17.97
2023-01-29T13:38:08.157Z,17.63
2023-01-29T13:40:36.339Z,18.27
2023-01-29T13:43:07.468Z,17.37
2023-01-29T13:45:37.173Z,18.87
2023-01-29T13:48:12.245Z,17.93
2023-01-29T13:50:41.122Z,16.73
2023-01-29T13:53:10.778Z,18.27
2023-01-29T13:55:40.208Z,18.20
2023-01-29T13:58:11.889Z,18.77
2023-01-29T14:00:58.838Z,17.57
2023-01-29T14:04:03.289Z,17.40
2023-01-29T14:06:40.664Z,17.60
2023-01-29T14:09:23.771Z,17.77
2023-01-29T14:11:51.972Z,17.90
2023-01-29T14:14:44.072Z,18.43
2023-01-29T14:17:13.733Z,17.73
2023-01-29T14:19:47.975Z,17.57
2023-01-29T14:22:22.297Z,17.33
2023-01-29T14:24:51.334Z,17.50
2023-01-29T14:27:21.838Z,16.03
2023-01-29T14:29:51.658Z,17.27
2023-01-29T14:32:24.799Z,16.90
2023-01-29T14:34:53.926Z,17.13
2023-01-29T14:37:23.285Z,17.67
2023-01-29T14:39:52.555Z,16.17
2023-01-29T14:42:23.841Z,16.27
2023-01-29T14:45:00.029Z,16.53
2023-01-29T14:47:43.310Z,16.43
2023-01-29T14:50:26.364Z,15.93
2023-01-29T14:52:56.432Z,14.47
2023-01-29T14:55:28.554Z,16.33
2023-01-29T14:57:58.085Z,15.67
2023-01-29T15:00:29.885Z,15.17
2023-01-29T15:03:01.964Z,16.73
2023-01-29T15:05:33.065Z,14.27
2023-01-29T15:08:05.368Z,15.37
2023-01-29T15:10:38.826Z,15.70
2023-01-29T15:13:15.118Z,16.87
2023-01-29T15:15:45.597Z,16.37
2023-01-29T15:18:17.183Z,15.83
2023-01-29T15:20:45.861Z,16.60
2023-01-29T15:23:27.497Z,15.17
2023-01-29T15:25:56.690Z,16.83
2023-01-29T15:28:24.855Z,17.63
2023-01-29T15:30:55.532Z,18.07
2023-01-29T15:33:23.756Z,17.07
2023-01-29T15:36:06.781Z,18.60
2023-01-29T15:38:37.219Z,18.17
2023-01-29T15:41:06.402Z,18.83
2023-01-29T15:43:37.144Z,19.70
2023-01-29T15:46:07.049Z,21.10
2023-01-29T15:48:37.615Z,19.63
2023-01-29T15:51:07.916Z,17.27
2023-01-29T15:53:39.586Z,17.80
2023-01-29T15:56:10.541Z,19.23
2023-01-29T15:58:39.182Z,19.73
2023-01-29T16:01:07.681Z,20.23
2023-01-29T16:03:37.573Z,18.90
2023-01-29T16:06:07.163Z,17.90
2023-01-29T16:08:36.211Z,17.97
2023-01-29T16:11:06.790Z,19.53
2023-01-29T16:13:36.709Z,18.13
2023-01-29T16:16:05.839Z,18.10
2023-01-29T16:18:36.334Z,18.83
2023-01-29T16:21:08.694Z,17.40
2023-01-29T16:23:42.222Z,18.10
2023-01-29T16:26:16.979Z,18.30
2023-01-29T16:28:46.059Z,16.97
2023-01-29T16:31:15.318Z,17.03
2023-01-29T16:33:45.421Z,18.63
2023-01-29T16:36:15.820Z,17.90
2023-01-29T16:38:44.893Z,17.80
2023-01-29T16:41:30.829Z,17.93
2023-01-29T16:43:59.933Z,17.70
2023-01-29T16:46:33.500Z,16.63
2023-01-29T16:49:01.869Z,17.17
2023-01-29T16:51:31.108Z,17.97
2023-01-29T16:54:00.180Z,16.77
2023-01-29T16:56:31.462Z,18.20
2023-01-29T16:58:59.874Z,17.73
2023-01-29T17:01:29.636Z,17.60
2023-01-29T17:04:01.989Z,18.13
2023-01-29T17:06:30.294Z,17.53
2023-01-29T17:08:58.458Z,17.87
2023-01-29T17:11:29.188Z,17.97
2023-01-29T17:13:59.228Z,18.10
2023-01-29T17:16:28.798Z,17.93
2023-01-29T17:18:57.009Z,19.10
2023-01-29T17:21:25.298Z,18.87
2023-01-29T17:23:53.823Z,17.33
2023-01-29T17:26:22.658Z,18.93
2023-01-29T17:28:51.492Z,18.40
2023-01-29T17:31:21.160Z,19.00
2023-01-29T17:33:49.564Z,19.63
2023-01-29T17:36:18.907Z,19.93
2023-01-29T17:38:47.419Z,19.17
2023-01-29T17:41:20.237Z,18.77
2023-01-29T17:43:48.607Z,17.43
2023-01-29T17:46:17.723Z,18.20
2023-01-29T17:48:49.150Z,18.57
2023-01-29T17:51:18.750Z,19.17
2023-01-29T17:53:47.752Z,19.53
2023-01-29T17:56:19.863Z,20.23
2023-01-29T17:58:48.125Z,19.17
2023-01-29T18:01:16.316Z,19.43
2023-01-29T18:03:44.552Z,18.67
2023-01-29T18:06:18.006Z,20.67
2023-01-29T18:08:46.163Z,20.37
2023-01-29T18:11:14.533Z,20.90
2023-01-29T18:13:42.964Z,19.90
2023-01-29T18:16:11.300Z,22.33
2023-01-29T18:18:40.370Z,22.57
2023-01-29T18:21:08.824Z,21.73
2023-01-29T18:23:38.595Z,20.10
2023-01-29T18:26:07.515Z,20.80
2023-01-29T18:28:35.676Z,20.07
2023-01-29T18:31:04.146Z,18.97
2023-01-29T18:33:34.164Z,19.17
2023-01-29T18:36:04.820Z,20.40
2023-01-29T18:38:33.231Z,20.53
2023-01-29T18:41:06.074Z,19.37
2023-01-29T18:43:34.318Z,19.30
2023-01-29T18:46:02.559Z,19.13
2023-01-29T18:48:31.328Z,19.43
2023-01-29T18:50:59.647Z,18.87
2023-01-29T18:53:27.850Z,18.80
2023-01-29T18:55:56.844Z,20.17
2023-01-29T18:58:35.989Z,20.37
2023-01-29T19:01:08.880Z,20.97
2023-01-29T19:03:37.232Z,21.23
2023-01-29T19:06:06.526Z,21.23
2023-01-29T19:08:34.650Z,21.43
2023-01-29T19:11:05.471Z,21.53
2023-01-29T19:13:35.716Z,21.10
2023-01-29T19:16:04.068Z,21.27
2023-01-29T19:18:32.328Z,22.57
2023-01-29T19:21:01.297Z,24.27
2023-01-29T19:23:29.564Z,24.77
2023-01-29T19:25:58.844Z,24.53
2023-01-29T19:28:27.298Z,21.50
2023-01-29T19:30:59.344Z,22.10
2023-01-29T19:33:28.127Z,21.87
2023-01-29T19:35:57.336Z,23.23
2023-01-29T19:38:25.752Z,24.80
2023-01-29T19:40:55.272Z,26.37
2023-01-29T19:43:23.967Z,26.27
2023-01-29T19:45:58.713Z,25.57
2023-01-29T19:48:28.501Z,29.27
2023-01-29T19:50:57.024Z,31.53
2023-01-29T19:53:25.263Z,28.60
2023-01-29T19:56:00.329Z,28.80
2023-01-29T19:58:28.691Z,34.83
2023-01-29T20:00:57.653Z,38.80
2023-01-29T20:03:26.254Z,26.47
2023-01-29T20:05:55.866Z,40.90
2023-01-29T20:08:24.832Z,50.57
2023-01-29T20:10:52.964Z,64.10
2023-01-29T20:13:21.319Z,64.10
2023-01-29T20:15:50.403Z,62.47
2023-01-29T20:18:19.048Z,73.73
2023-01-29T20:20:47.866Z,73.77
2023-01-29T20:23:35.219Z,73.53
2023-01-29T20:26:05.758Z,68.97
2023-01-29T20:28:34.456Z,70.97
2023-01-29T20:31:02.805Z,71.60
2023-01-29T20:33:31.848Z,67.63
2023-01-29T20:36:01.157Z,77.83
2023-01-29T20:38:31.715Z,61.17
2023-01-29T20:41:03.893Z,82.10
2023-01-29T20:43:32.089Z,89.23
2023-01-29T20:46:00.561Z,104.13
2023-01-29T20:48:28.763Z,124.47
2023-01-29T20:50:57.062Z,117.50
2023-01-29T20:53:25.193Z,102.93
2023-01-29T20:55:54.883Z,112.40
2023-01-29T20:58:23.055Z,155.10
2023-01-29T21:00:51.337Z,214.43
2023-01-29T21:03:19.555Z,181.87
2023-01-29T21:05:47.671Z,300.03
2023-01-29T21:08:15.829Z,312.37
2023-01-29T21:10:45.035Z,271.60
2023-01-29T21:13:14.534Z,237.37
2023-01-29T21:15:44.239Z,215.60
2023-01-29T21:18:12.409Z,163.93
2023-01-29T21:20:40.590Z,111.83
2023-01-29T21:23:08.748Z,139.30
2023-01-29T21:25:38.520Z,146.87
2023-01-29T21:28:06.989Z,128.53
2023-01-29T21:30:36.516Z,111.40
2023-01-29T21:33:04.978Z,115.80
2023-01-29T21:35:33.295Z,86.70
2023-01-29T21:38:01.493Z,82.63
2023-01-29T21:40:30.540Z,88.23
2023-01-29T21:43:13.245Z,94.60
2023-01-29T21:45:42.902Z,74.07
2023-01-29T21:48:12.008Z,75.93
2023-01-29T21:50:40.504Z,68.13
2023-01-29T21:53:08.696Z,62.87
2023-01-29T21:55:36.850Z,67.37
2023-01-29T21:58:05.005Z,64.77
2023-01-29T22:00:33.334Z,59.10
2023-01-29T22:03:02.910Z,65.27
2023-01-29T22:05:31.134Z,76.10
2023-01-29T22:07:59.297Z,75.77
2023-01-29T22:10:28.603Z,64.53
2023-01-29T22:12:57.828Z,62.80
2023-01-29T22:15:25.962Z,64.20
2023-01-29T22:17:54.179Z,64.77
2023-01-29T22:20:29.727Z,57.20
2023-01-29T22:22:58.922Z,49.20
2023-01-29T22:25:27.087Z,66.73
2023-01-29T22:27:55.319Z,61.37
2023-01-29T22:30:24.053Z,59.27
2023-01-29T22:32:52.406Z,66.27
2023-01-29T22:35:20.579Z,73.83
2023-01-29T22:37:50.074Z,80.20
2023-01-29T22:40:18.599Z,95.33
2023-01-29T22:42:46.980Z,93.07
2023-01-29T22:45:15.166Z,95.83
2023-01-29T22:47:43.339Z,94.53
2023-01-29T22:50:12.184Z,86.03
2023-01-29T22:52:42.872Z,84.13
2023-01-29T22:55:13.306Z,92.13
2023-01-29T22:57:41.688Z,89.77
2023-01-29T23:00:11.723Z,102.37
2023-01-29T23:02:39.859Z,107.70
2023-01-29T23:05:08.684Z,105.53
2023-01-29T23:07:36.909Z,100.57
2023-01-29T23:10:05.814Z,101.67
2023-01-29T23:12:35.720Z,91.63
2023-01-29T23:15:03.845Z,78.67
2023-01-29T23:17:32.002Z,83.83
2023-01-29T23:20:00.199Z,94.47
2023-01-29T23:22:28.365Z,89.43
2023-01-29T23:24:56.560Z,92.20
2023-01-29T23:27:23.771Z,86.40
2023-01-29T23:29:53.270Z,76.93
2023-01-29T23:32:22.341Z,79.57
2023-01-29T23:34:50.479Z,88.03
2023-01-29T23:37:18.628Z,92.90
2023-01-29T23:39:46.748Z,99.73
2023-01-29T23:42:14.915Z,108.27
2023-01-29T23:44:43.047Z,94.07
2023-01-29T23:47:12.593Z,93.70
2023-01-29T23:49:40.830Z,94.93
2023-01-29T23:52:09.020Z,96.93
2023-01-29T23:54:37.224Z,91.53
2023-01-29T23:57:05.510Z,78.97
2023-01-29T23:59:33.779Z,100.97
